sensor_id;sensor_type;location;lat;lon;timestamp;P1;durP1;ratioP1;P2;durP2;ratioP2
73382;SDS011;61600;48.126;11.542;2022-12-07T00:01:26;11.30;;;6.05;;
73382;SDS011;61600;48.126;11.542;2022-12-07T00:03:54;13.23;;;6.07;;
73382;SDS011;61600;48.126;11.542;2022-12-07T00:06:34;11.77;;;6.18;;
73382;SDS011;61600;48.126;11.542;2022-12-07T00:09:02;10.40;;;5.10;;
73382;SDS011;61600;48.126;11.542;2022-12-07T00:11:31;11.75;;;6.35;;
73382;SDS011;61600;48.126;11.542;2022-12-07T00:14:02;9.82;;;4.90;;
73382;SDS011;61600;48.126;11.542;2022-12-07T00:16:34;10.77;;;5.82;;
73382;SDS011;61600;48.126;11.542;2022-12-07T00:19:00;10.10;;;5.38;;
73382;SDS011;61600;48.126;11.542;2022-12-07T00:21:30;11.80;;;5.57;;
73382;SDS011;61600;48.126;11.542;2022-12-07T00:23:57;12.23;;;5.75;;
73382;SDS011;61600;48.126;11.542;2022-12-07T00:26:24;11.00;;;5.72;;
73382;SDS011;61600;48.126;11.542;2022-12-07T00:28:55;11.60;;;5.55;;
73382;SDS011;61600;48.126;11.542;2022-12-07T00:31:35;9.35;;;4.63;;
73382;SDS011;61600;48.126;11.542;2022-12-07T00:34:07;11.27;;;5.65;;
73382;SDS011;61600;48.126;11.542;2022-12-07T00:36:41;12.07;;;5.65;;
73382;SDS011;61600;48.126;11.542;2022-12-07T00:39:07;11.80;;;5.60;;
73382;SDS011;61600;48.126;11.542;2022-12-07T00:41:34;14.85;;;6.20;;
73382;SDS011;61600;48.126;11.542;2022-12-07T00:43:59;10.50;;;5.18;;
73382;SDS011;61600;48.126;11.542;2022-12-07T00:46:26;12.30;;;6.10;;
73382;SDS011;61600;48.126;11.542;2022-12-07T00:48:51;10.65;;;5.82;;
73382;SDS011;61600;48.126;11.542;2022-12-07T00:51:21;9.68;;;5.60;;
73382;SDS011;61600;48.126;11.542;2022-12-07T00:53:49;12.55;;;5.93;;
73382;SDS011;61600;48.126;11.542;2022-12-07T00:56:22;11.90;;;5.82;;
73382;SDS011;61600;48.126;11.542;2022-12-07T00:58:50;11.35;;;5.28;;
73382;SDS011;61600;48.126;11.542;2022-12-07T01:01:19;9.63;;;4.72;;
73382;SDS011;61600;48.126;11.542;2022-12-07T01:03:45;10.68;;;5.22;;
73382;SDS011;61600;48.126;11.542;2022-12-07T01:06:13;11.60;;;5.43;;
73382;SDS011;61600;48.126;11.542;2022-12-07T01:08:41;9.20;;;4.72;;
73382;SDS011;61600;48.126;11.542;2022-12-07T01:11:07;10.30;;;5.10;;
73382;SDS011;61600;48.126;11.542;2022-12-07T01:13:35;10.00;;;5.70;;
73382;SDS011;61600;48.126;11.542;2022-12-07T01:16:03;11.77;;;5.18;;
73382;SDS011;61600;48.126;11.542;2022-12-07T01:18:30;9.60;;;5.03;;
73382;SDS011;61600;48.126;11.542;2022-12-07T01:21:06;9.30;;;4.72;;
73382;SDS011;61600;48.126;11.542;2022-12-07T01:23:34;11.70;;;5.40;;
73382;SDS011;61600;48.126;11.542;2022-12-07T01:26:02;10.63;;;5.18;;
73382;SDS011;61600;48.126;11.542;2022-12-07T01:28:30;10.15;;;4.90;;
73382;SDS011;61600;48.126;11.542;2022-12-07T01:31:01;8.55;;;4.80;;
73382;SDS011;61600;48.126;11.542;2022-12-07T01:33:30;12.07;;;5.63;;
73382;SDS011;61600;48.126;11.542;2022-12-07T01:36:08;9.10;;;5.00;;
73382;SDS011;61600;48.126;11.542;2022-12-07T01:38:37;10.23;;;5.03;;
73382;SDS011;61600;48.126;11.542;2022-12-07T01:41:03;11.65;;;5.70;;
73382;SDS011;61600;48.126;11.542;2022-12-07T01:43:29;14.23;;;5.55;;
73382;SDS011;61600;48.126;11.542;2022-12-07T01:45:57;9.65;;;4.88;;
73382;SDS011;61600;48.126;11.542;2022-12-07T01:48:33;10.90;;;5.72;;
73382;SDS011;61600;48.126;11.542;2022-12-07T01:51:10;9.98;;;5.45;;
73382;SDS011;61600;48.126;11.542;2022-12-07T01:53:39;12.57;;;5.72;;
73382;SDS011;61600;48.126;11.542;2022-12-07T01:56:09;12.57;;;4.80;;
73382;SDS011;61600;48.126;11.542;2022-12-07T01:58:39;9.82;;;5.07;;
73382;SDS011;61600;48.126;11.542;2022-12-07T02:01:05;12.27;;;5.60;;
73382;SDS011;61600;48.126;11.542;2022-12-07T02:03:32;10.73;;;5.13;;
73382;SDS011;61600;48.126;11.542;2022-12-07T02:06:04;10.13;;;4.97;;
73382;SDS011;61600;48.126;11.542;2022-12-07T02:08:32;9.60;;;5.05;;
73382;SDS011;61600;48.126;11.542;2022-12-07T02:10:59;10.88;;;5.30;;
73382;SDS011;61600;48.126;11.542;2022-12-07T02:24:14;9.90;;;4.93;;
73382;SDS011;61600;48.126;11.542;2022-12-07T02:29:34;11.52;;;5.97;;
73382;SDS011;61600;48.126;11.542;2022-12-07T02:32:13;9.25;;;5.70;;
73382;SDS011;61600;48.126;11.542;2022-12-07T02:34:47;9.50;;;5.05;;
73382;SDS011;61600;48.126;11.542;2022-12-07T02:40:22;9.93;;;5.30;;
73382;SDS011;61600;48.126;11.542;2022-12-07T02:43:06;12.27;;;5.40;;
73382;SDS011;61600;48.126;11.542;2022-12-07T02:45:40;10.90;;;5.00;;
73382;SDS011;61600;48.126;11.542;2022-12-07T02:48:08;11.07;;;5.40;;
73382;SDS011;61600;48.126;11.542;2022-12-07T02:50:37;12.35;;;5.20;;
73382;SDS011;61600;48.126;11.542;2022-12-07T02:53:03;9.45;;;5.10;;
73382;SDS011;61600;48.126;11.542;2022-12-07T02:55:30;10.10;;;5.40;;
73382;SDS011;61600;48.126;11.542;2022-12-07T03:01:24;12.55;;;5.95;;
73382;SDS011;61600;48.126;11.542;2022-12-07T03:04:01;11.75;;;5.85;;
73382;SDS011;61600;48.126;11.542;2022-12-07T03:06:40;11.02;;;6.18;;
73382;SDS011;61600;48.126;11.542;2022-12-07T03:09:14;8.85;;;4.60;;
73382;SDS011;61600;48.126;11.542;2022-12-07T03:14:30;11.43;;;5.68;;
73382;SDS011;61600;48.126;11.542;2022-12-07T03:17:09;11.38;;;5.82;;
73382;SDS011;61600;48.126;11.542;2022-12-07T03:19:41;13.82;;;6.07;;
73382;SDS011;61600;48.126;11.542;2022-12-07T03:22:10;9.77;;;5.05;;
73382;SDS011;61600;48.126;11.542;2022-12-07T03:24:50;10.57;;;4.72;;
73382;SDS011;61600;48.126;11.542;2022-12-07T03:27:20;9.63;;;5.47;;
73382;SDS011;61600;48.126;11.542;2022-12-07T03:29:54;10.35;;;5.05;;
73382;SDS011;61600;48.126;11.542;2022-12-07T03:35:27;11.80;;;6.03;;
73382;SDS011;61600;48.126;11.542;2022-12-07T03:43:17;9.45;;;4.68;;
73382;SDS011;61600;48.126;11.542;2022-12-07T03:45:47;11.35;;;5.28;;
73382;SDS011;61600;48.126;11.542;2022-12-07T03:48:22;11.32;;;6.47;;
73382;SDS011;61600;48.126;11.542;2022-12-07T03:50:55;10.57;;;5.78;;
73382;SDS011;61600;48.126;11.542;2022-12-07T03:53:58;10.35;;;5.45;;
73382;SDS011;61600;48.126;11.542;2022-12-07T03:56:38;10.32;;;4.95;;
73382;SDS011;61600;48.126;11.542;2022-12-07T03:59:05;9.20;;;5.07;;
73382;SDS011;61600;48.126;11.542;2022-12-07T04:01:32;13.02;;;6.63;;
73382;SDS011;61600;48.126;11.542;2022-12-07T04:03:58;9.13;;;4.90;;
73382;SDS011;61600;48.126;11.542;2022-12-07T04:06:23;13.63;;;6.05;;
73382;SDS011;61600;48.126;11.542;2022-12-07T04:08:49;13.43;;;5.75;;
73382;SDS011;61600;48.126;11.542;2022-12-07T04:11:15;10.73;;;5.80;;
73382;SDS011;61600;48.126;11.542;2022-12-07T04:13:41;11.02;;;5.57;;
73382;SDS011;61600;48.126;11.542;2022-12-07T04:16:25;13.13;;;6.30;;
73382;SDS011;61600;48.126;11.542;2022-12-07T04:18:51;13.50;;;6.60;;
73382;SDS011;61600;48.126;11.542;2022-12-07T04:21:17;13.75;;;6.72;;
73382;SDS011;61600;48.126;11.542;2022-12-07T04:23:42;11.07;;;5.18;;
73382;SDS011;61600;48.126;11.542;2022-12-07T04:26:08;10.65;;;5.72;;
73382;SDS011;61600;48.126;11.542;2022-12-07T04:28:34;11.93;;;5.93;;
73382;SDS011;61600;48.126;11.542;2022-12-07T04:31:00;13.25;;;6.50;;
73382;SDS011;61600;48.126;11.542;2022-12-07T04:33:25;11.43;;;6.60;;
73382;SDS011;61600;48.126;11.542;2022-12-07T04:35:51;12.38;;;6.18;;
73382;SDS011;61600;48.126;11.542;2022-12-07T04:38:17;13.05;;;6.75;;
73382;SDS011;61600;48.126;11.542;2022-12-07T04:40:43;12.80;;;5.88;;
73382;SDS011;61600;48.126;11.542;2022-12-07T04:43:09;15.65;;;7.22;;
73382;SDS011;61600;48.126;11.542;2022-12-07T04:45:35;11.65;;;6.32;;
73382;SDS011;61600;48.126;11.542;2022-12-07T04:48:00;12.43;;;6.20;;
73382;SDS011;61600;48.126;11.542;2022-12-07T04:50:26;14.05;;;7.10;;
73382;SDS011;61600;48.126;11.542;2022-12-07T04:52:52;15.70;;;6.78;;
73382;SDS011;61600;48.126;11.542;2022-12-07T04:55:17;18.85;;;6.55;;
73382;SDS011;61600;48.126;11.542;2022-12-07T04:57:43;13.75;;;6.53;;
73382;SDS011;61600;48.126;11.542;2022-12-07T05:00:09;15.25;;;5.88;;
73382;SDS011;61600;48.126;11.542;2022-12-07T05:02:35;16.70;;;7.35;;
73382;SDS011;61600;48.126;11.542;2022-12-07T05:05:00;11.73;;;6.18;;
73382;SDS011;61600;48.126;11.542;2022-12-07T05:07:26;14.52;;;7.10;;
73382;SDS011;61600;48.126;11.542;2022-12-07T05:09:52;13.77;;;6.25;;
73382;SDS011;61600;48.126;11.542;2022-12-07T05:12:17;10.82;;;5.38;;
73382;SDS011;61600;48.126;11.542;2022-12-07T05:14:43;12.35;;;6.55;;
73382;SDS011;61600;48.126;11.542;2022-12-07T05:17:09;16.42;;;6.40;;
73382;SDS011;61600;48.126;11.542;2022-12-07T05:19:34;14.02;;;6.35;;
73382;SDS011;61600;48.126;11.542;2022-12-07T05:22:03;12.57;;;6.20;;
73382;SDS011;61600;48.126;11.542;2022-12-07T05:24:28;14.45;;;6.72;;
73382;SDS011;61600;48.126;11.542;2022-12-07T05:26:54;15.10;;;7.35;;
73382;SDS011;61600;48.126;11.542;2022-12-07T05:29:20;13.77;;;6.60;;
73382;SDS011;61600;48.126;11.542;2022-12-07T05:31:45;10.35;;;4.85;;
73382;SDS011;61600;48.126;11.542;2022-12-07T05:34:12;13.85;;;6.45;;
73382;SDS011;61600;48.126;11.542;2022-12-07T05:36:38;13.80;;;6.10;;
73382;SDS011;61600;48.126;11.542;2022-12-07T05:39:04;13.13;;;5.90;;
73382;SDS011;61600;48.126;11.542;2022-12-07T05:41:31;14.50;;;7.05;;
73382;SDS011;61600;48.126;11.542;2022-12-07T05:44:15;15.70;;;6.63;;
73382;SDS011;61600;48.126;11.542;2022-12-07T05:46:41;13.07;;;6.25;;
73382;SDS011;61600;48.126;11.542;2022-12-07T05:49:08;13.57;;;7.10;;
73382;SDS011;61600;48.126;11.542;2022-12-07T05:51:49;13.45;;;6.65;;
73382;SDS011;61600;48.126;11.542;2022-12-07T05:54:14;12.50;;;6.45;;
73382;SDS011;61600;48.126;11.542;2022-12-07T05:56:40;14.50;;;7.38;;
73382;SDS011;61600;48.126;11.542;2022-12-07T05:59:07;14.68;;;7.28;;
73382;SDS011;61600;48.126;11.542;2022-12-07T06:01:52;14.48;;;6.63;;
73382;SDS011;61600;48.126;11.542;2022-12-07T06:04:20;17.65;;;7.07;;
73382;SDS011;61600;48.126;11.542;2022-12-07T06:06:47;15.90;;;7.35;;
73382;SDS011;61600;48.126;11.542;2022-12-07T06:09:14;13.13;;;5.95;;
73382;SDS011;61600;48.126;11.542;2022-12-07T06:11:42;12.27;;;6.30;;
73382;SDS011;61600;48.126;11.542;2022-12-07T06:14:27;15.45;;;7.28;;
73382;SDS011;61600;48.126;11.542;2022-12-07T06:16:53;12.52;;;6.25;;
73382;SDS011;61600;48.126;11.542;2022-12-07T06:19:18;17.42;;;7.32;;
73382;SDS011;61600;48.126;11.542;2022-12-07T06:21:44;14.18;;;7.32;;
73382;SDS011;61600;48.126;11.542;2022-12-07T06:24:14;15.00;;;6.65;;
73382;SDS011;61600;48.126;11.542;2022-12-07T06:26:40;13.60;;;6.82;;
73382;SDS011;61600;48.126;11.542;2022-12-07T06:29:06;13.07;;;6.85;;
73382;SDS011;61600;48.126;11.542;2022-12-07T06:31:35;15.35;;;7.32;;
73382;SDS011;61600;48.126;11.542;2022-12-07T06:34:03;11.45;;;5.97;;
73382;SDS011;61600;48.126;11.542;2022-12-07T06:36:31;15.23;;;7.15;;
73382;SDS011;61600;48.126;11.542;2022-12-07T06:38:57;15.77;;;6.93;;
73382;SDS011;61600;48.126;11.542;2022-12-07T06:41:23;12.88;;;6.25;;
73382;SDS011;61600;48.126;11.542;2022-12-07T06:43:50;17.20;;;7.35;;
73382;SDS011;61600;48.126;11.542;2022-12-07T06:46:16;15.13;;;7.45;;
73382;SDS011;61600;48.126;11.542;2022-12-07T06:48:42;14.07;;;6.60;;
73382;SDS011;61600;48.126;11.542;2022-12-07T06:51:09;14.00;;;7.03;;
73382;SDS011;61600;48.126;11.542;2022-12-07T06:53:36;18.95;;;7.28;;
73382;SDS011;61600;48.126;11.542;2022-12-07T06:56:05;16.65;;;7.45;;
73382;SDS011;61600;48.126;11.542;2022-12-07T06:58:36;15.98;;;6.88;;
73382;SDS011;61600;48.126;11.542;2022-12-07T07:01:02;14.98;;;6.75;;
73382;SDS011;61600;48.126;11.542;2022-12-07T07:03:28;13.98;;;6.75;;
73382;SDS011;61600;48.126;11.542;2022-12-07T07:05:54;14.13;;;6.70;;
73382;SDS011;61600;48.126;11.542;2022-12-07T07:08:23;14.80;;;6.50;;
73382;SDS011;61600;48.126;11.542;2022-12-07T07:10:48;15.00;;;6.68;;
73382;SDS011;61600;48.126;11.542;2022-12-07T07:13:14;14.27;;;6.55;;
73382;SDS011;61600;48.126;11.542;2022-12-07T07:15:43;11.93;;;5.70;;
73382;SDS011;61600;48.126;11.542;2022-12-07T07:18:09;13.05;;;6.68;;
73382;SDS011;61600;48.126;11.542;2022-12-07T07:20:35;14.73;;;6.90;;
73382;SDS011;61600;48.126;11.542;2022-12-07T07:23:01;13.05;;;7.20;;
73382;SDS011;61600;48.126;11.542;2022-12-07T07:25:27;12.98;;;6.68;;
73382;SDS011;61600;48.126;11.542;2022-12-07T07:27:54;15.38;;;6.82;;
73382;SDS011;61600;48.126;11.542;2022-12-07T07:30:20;16.15;;;6.78;;
73382;SDS011;61600;48.126;11.542;2022-12-07T07:32:46;11.98;;;6.03;;
73382;SDS011;61600;48.126;11.542;2022-12-07T07:35:11;13.32;;;6.05;;
73382;SDS011;61600;48.126;11.542;2022-12-07T07:37:39;13.98;;;6.30;;
73382;SDS011;61600;48.126;11.542;2022-12-07T07:40:26;13.77;;;5.50;;
73382;SDS011;61600;48.126;11.542;2022-12-07T07:42:54;11.88;;;5.85;;
73382;SDS011;61600;48.126;11.542;2022-12-07T07:45:21;12.77;;;6.28;;
73382;SDS011;61600;48.126;11.542;2022-12-07T07:50:14;14.63;;;5.53;;
73382;SDS011;61600;48.126;11.542;2022-12-07T07:52:41;12.00;;;5.63;;
73382;SDS011;61600;48.126;11.542;2022-12-07T07:55:07;11.32;;;5.68;;
73382;SDS011;61600;48.126;11.542;2022-12-07T07:57:34;12.50;;;5.65;;
73382;SDS011;61600;48.126;11.542;2022-12-07T08:00:06;9.88;;;4.80;;
73382;SDS011;61600;48.126;11.542;2022-12-07T08:02:34;14.77;;;7.53;;
73382;SDS011;61600;48.126;11.542;2022-12-07T08:04:59;15.90;;;6.53;;
73382;SDS011;61600;48.126;11.542;2022-12-07T08:07:26;15.15;;;6.40;;
73382;SDS011;61600;48.126;11.542;2022-12-07T08:09:53;14.55;;;6.75;;
73382;SDS011;61600;48.126;11.542;2022-12-07T08:12:19;12.85;;;5.97;;
73382;SDS011;61600;48.126;11.542;2022-12-07T08:14:45;17.58;;;7.35;;
73382;SDS011;61600;48.126;11.542;2022-12-07T08:17:11;18.25;;;8.13;;
73382;SDS011;61600;48.126;11.542;2022-12-07T08:19:37;7.35;;;4.25;;
73382;SDS011;61600;48.126;11.542;2022-12-07T08:22:03;14.65;;;6.13;;
73382;SDS011;61600;48.126;11.542;2022-12-07T08:24:32;15.35;;;6.78;;
73382;SDS011;61600;48.126;11.542;2022-12-07T08:26:59;18.23;;;7.65;;
73382;SDS011;61600;48.126;11.542;2022-12-07T08:29:25;14.35;;;6.95;;
73382;SDS011;61600;48.126;11.542;2022-12-07T08:31:52;13.57;;;6.97;;
73382;SDS011;61600;48.126;11.542;2022-12-07T08:34:18;13.73;;;7.38;;
73382;SDS011;61600;48.126;11.542;2022-12-07T08:36:44;16.27;;;7.10;;
73382;SDS011;61600;48.126;11.542;2022-12-07T08:39:10;15.32;;;7.53;;
73382;SDS011;61600;48.126;11.542;2022-12-07T08:41:38;13.30;;;5.80;;
73382;SDS011;61600;48.126;11.542;2022-12-07T08:44:04;16.00;;;8.00;;
73382;SDS011;61600;48.126;11.542;2022-12-07T08:46:35;13.75;;;5.80;;
73382;SDS011;61600;48.126;11.542;2022-12-07T08:51:37;15.27;;;7.45;;
73382;SDS011;61600;48.126;11.542;2022-12-07T08:54:05;14.30;;;6.90;;
73382;SDS011;61600;48.126;11.542;2022-12-07T08:56:34;14.48;;;6.40;;
73382;SDS011;61600;48.126;11.542;2022-12-07T08:59:03;14.73;;;6.28;;
73382;SDS011;61600;48.126;11.542;2022-12-07T09:01:31;17.35;;;7.82;;
73382;SDS011;61600;48.126;11.542;2022-12-07T09:03:57;14.30;;;5.97;;
73382;SDS011;61600;48.126;11.542;2022-12-07T09:06:23;14.80;;;6.97;;
73382;SDS011;61600;48.126;11.542;2022-12-07T09:08:50;14.15;;;6.07;;
73382;SDS011;61600;48.126;11.542;2022-12-07T09:11:19;13.93;;;6.22;;
73382;SDS011;61600;48.126;11.542;2022-12-07T09:13:45;14.45;;;6.78;;
73382;SDS011;61600;48.126;11.542;2022-12-07T09:16:11;13.02;;;5.38;;
73382;SDS011;61600;48.126;11.542;2022-12-07T09:18:45;13.30;;;6.07;;
73382;SDS011;61600;48.126;11.542;2022-12-07T09:21:11;14.32;;;6.32;;
73382;SDS011;61600;48.126;11.542;2022-12-07T09:23:37;14.88;;;6.28;;
73382;SDS011;61600;48.126;11.542;2022-12-07T09:26:02;15.27;;;7.45;;
73382;SDS011;61600;48.126;11.542;2022-12-07T09:28:30;14.20;;;6.05;;
73382;SDS011;61600;48.126;11.542;2022-12-07T09:30:56;12.40;;;5.43;;
73382;SDS011;61600;48.126;11.542;2022-12-07T09:33:22;14.68;;;6.95;;
73382;SDS011;61600;48.126;11.542;2022-12-07T09:35:48;16.70;;;7.28;;
73382;SDS011;61600;48.126;11.542;2022-12-07T09:38:15;14.50;;;5.63;;
73382;SDS011;61600;48.126;11.542;2022-12-07T09:40:42;12.25;;;5.53;;
73382;SDS011;61600;48.126;11.542;2022-12-07T09:43:27;13.88;;;5.88;;
73382;SDS011;61600;48.126;11.542;2022-12-07T09:45:53;13.68;;;6.45;;
73382;SDS011;61600;48.126;11.542;2022-12-07T09:48:26;11.95;;;5.30;;
73382;SDS011;61600;48.126;11.542;2022-12-07T09:50:57;14.45;;;5.95;;
73382;SDS011;61600;48.126;11.542;2022-12-07T09:53:29;13.57;;;5.65;;
73382;SDS011;61600;48.126;11.542;2022-12-07T09:55:58;14.65;;;6.65;;
73382;SDS011;61600;48.126;11.542;2022-12-07T09:58:25;14.07;;;6.20;;
73382;SDS011;61600;48.126;11.542;2022-12-07T10:00:57;14.77;;;6.18;;
73382;SDS011;61600;48.126;11.542;2022-12-07T10:03:26;11.63;;;5.65;;
73382;SDS011;61600;48.126;11.542;2022-12-07T10:05:53;15.90;;;5.95;;
73382;SDS011;61600;48.126;11.542;2022-12-07T10:08:20;13.73;;;5.45;;
73382;SDS011;61600;48.126;11.542;2022-12-07T10:10:48;11.93;;;5.95;;
73382;SDS011;61600;48.126;11.542;2022-12-07T10:14:09;12.93;;;5.97;;
73382;SDS011;61600;48.126;11.542;2022-12-07T10:18:50;11.57;;;5.63;;
73382;SDS011;61600;48.126;11.542;2022-12-07T10:21:17;12.27;;;5.45;;
73382;SDS011;61600;48.126;11.542;2022-12-07T10:26:32;9.68;;;4.38;;
73382;SDS011;61600;48.126;11.542;2022-12-07T10:29:23;12.02;;;5.32;;
73382;SDS011;61600;48.126;11.542;2022-12-07T10:32:02;9.98;;;4.75;;
73382;SDS011;61600;48.126;11.542;2022-12-07T10:34:31;13.20;;;5.35;;
73382;SDS011;61600;48.126;11.542;2022-12-07T10:37:07;7.45;;;4.05;;
73382;SDS011;61600;48.126;11.542;2022-12-07T10:42:18;9.05;;;4.07;;
73382;SDS011;61600;48.126;11.542;2022-12-07T10:53:35;15.55;;;6.22;;
73382;SDS011;61600;48.126;11.542;2022-12-07T11:01:39;9.43;;;4.65;;
73382;SDS011;61600;48.126;11.542;2022-12-07T11:07:57;9.90;;;4.03;;
73382;SDS011;61600;48.126;11.542;2022-12-07T11:13:29;7.88;;;4.32;;
73382;SDS011;61600;48.126;11.542;2022-12-07T11:16:28;9.27;;;3.85;;
73382;SDS011;61600;48.126;11.542;2022-12-07T11:22:06;9.95;;;4.55;;
73382;SDS011;61600;48.126;11.542;2022-12-07T11:24:44;11.85;;;4.43;;
73382;SDS011;61600;48.126;11.542;2022-12-07T11:27:31;8.18;;;3.55;;
73382;SDS011;61600;48.126;11.542;2022-12-07T11:30:09;6.88;;;2.97;;
73382;SDS011;61600;48.126;11.542;2022-12-07T11:38:43;8.52;;;3.83;;
73382;SDS011;61600;48.126;11.542;2022-12-07T11:41:10;6.65;;;3.17;;
73382;SDS011;61600;48.126;11.542;2022-12-07T11:43:42;8.48;;;4.43;;
73382;SDS011;61600;48.126;11.542;2022-12-07T11:46:19;11.63;;;4.43;;
73382;SDS011;61600;48.126;11.542;2022-12-07T11:49:04;9.00;;;4.30;;
73382;SDS011;61600;48.126;11.542;2022-12-07T11:51:38;10.13;;;4.43;;
73382;SDS011;61600;48.126;11.542;2022-12-07T11:54:14;7.60;;;3.33;;
73382;SDS011;61600;48.126;11.542;2022-12-07T11:56:45;7.53;;;3.65;;
73382;SDS011;61600;48.126;11.542;2022-12-07T12:02:11;7.85;;;3.17;;
73382;SDS011;61600;48.126;11.542;2022-12-07T12:07:16;9.68;;;4.03;;
73382;SDS011;61600;48.126;11.542;2022-12-07T12:09:56;14.90;;;4.88;;
73382;SDS011;61600;48.126;11.542;2022-12-07T12:18:41;8.70;;;3.47;;
73382;SDS011;61600;48.126;11.542;2022-12-07T12:21:09;9.55;;;4.55;;
73382;SDS011;61600;48.126;11.542;2022-12-07T12:23:40;8.45;;;4.35;;
73382;SDS011;61600;48.126;11.542;2022-12-07T12:26:22;8.32;;;3.67;;
73382;SDS011;61600;48.126;11.542;2022-12-07T12:28:54;9.80;;;3.88;;
73382;SDS011;61600;48.126;11.542;2022-12-07T12:33:54;11.82;;;4.95;;
73382;SDS011;61600;48.126;11.542;2022-12-07T12:44:01;11.35;;;4.82;;
73382;SDS011;61600;48.126;11.542;2022-12-07T12:46:50;9.50;;;4.47;;
73382;SDS011;61600;48.126;11.542;2022-12-07T12:54:56;10.20;;;4.38;;
73382;SDS011;61600;48.126;11.542;2022-12-07T12:57:47;13.70;;;3.70;;
73382;SDS011;61600;48.126;11.542;2022-12-07T13:00:36;8.57;;;4.45;;
73382;SDS011;61600;48.126;11.542;2022-12-07T13:03:21;8.57;;;4.15;;
73382;SDS011;61600;48.126;11.542;2022-12-07T13:09:15;6.93;;;3.67;;
73382;SDS011;61600;48.126;11.542;2022-12-07T13:12:14;8.90;;;3.90;;
73382;SDS011;61600;48.126;11.542;2022-12-07T13:14:55;9.35;;;4.47;;
73382;SDS011;61600;48.126;11.542;2022-12-07T13:34:39;9.45;;;4.05;;
73382;SDS011;61600;48.126;11.542;2022-12-07T13:37:13;8.02;;;3.88;;
73382;SDS011;61600;48.126;11.542;2022-12-07T13:39:57;13.65;;;5.25;;
73382;SDS011;61600;48.126;11.542;2022-12-07T13:44:56;10.90;;;4.82;;
73382;SDS011;61600;48.126;11.542;2022-12-07T13:48:16;16.90;;;4.20;;
73382;SDS011;61600;48.126;11.542;2022-12-07T13:50:58;9.18;;;4.28;;
73382;SDS011;61600;48.126;11.542;2022-12-07T13:53:33;11.23;;;4.55;;
73382;SDS011;61600;48.126;11.542;2022-12-07T13:56:41;8.60;;;3.42;;
73382;SDS011;61600;48.126;11.542;2022-12-07T13:59:16;15.50;;;4.78;;
73382;SDS011;61600;48.126;11.542;2022-12-07T14:01:53;9.13;;;3.53;;
73382;SDS011;61600;48.126;11.542;2022-12-07T14:06:57;7.75;;;3.90;;
73382;SDS011;61600;48.126;11.542;2022-12-07T14:09:31;11.95;;;3.83;;
73382;SDS011;61600;48.126;11.542;2022-12-07T14:12:17;10.45;;;4.53;;
73382;SDS011;61600;48.126;11.542;2022-12-07T14:14:46;15.85;;;5.78;;
73382;SDS011;61600;48.126;11.542;2022-12-07T14:17:15;13.18;;;4.55;;
73382;SDS011;61600;48.126;11.542;2022-12-07T14:22:38;9.57;;;4.40;;
73382;SDS011;61600;48.126;11.542;2022-12-07T14:27:47;9.10;;;4.28;;
73382;SDS011;61600;48.126;11.542;2022-12-07T14:30:18;9.10;;;4.32;;
73382;SDS011;61600;48.126;11.542;2022-12-07T14:32:44;9.80;;;3.67;;
73382;SDS011;61600;48.126;11.542;2022-12-07T14:35:19;12.93;;;4.45;;
73382;SDS011;61600;48.126;11.542;2022-12-07T14:37:47;9.57;;;4.03;;
73382;SDS011;61600;48.126;11.542;2022-12-07T14:42:55;7.32;;;3.60;;
73382;SDS011;61600;48.126;11.542;2022-12-07T14:45:25;9.10;;;3.83;;
73382;SDS011;61600;48.126;11.542;2022-12-07T14:47:55;7.45;;;2.97;;
73382;SDS011;61600;48.126;11.542;2022-12-07T14:50:21;9.65;;;3.45;;
73382;SDS011;61600;48.126;11.542;2022-12-07T14:52:54;14.93;;;4.32;;
73382;SDS011;61600;48.126;11.542;2022-12-07T14:55:28;8.85;;;3.50;;
73382;SDS011;61600;48.126;11.542;2022-12-07T14:57:56;8.70;;;3.88;;
73382;SDS011;61600;48.126;11.542;2022-12-07T15:00:26;6.22;;;3.08;;
73382;SDS011;61600;48.126;11.542;2022-12-07T15:02:57;8.07;;;2.95;;
73382;SDS011;61600;48.126;11.542;2022-12-07T15:05:26;6.93;;;3.03;;
73382;SDS011;61600;48.126;11.542;2022-12-07T15:07:52;6.55;;;3.17;;
73382;SDS011;61600;48.126;11.542;2022-12-07T15:10:26;8.25;;;2.90;;
73382;SDS011;61600;48.126;11.542;2022-12-07T15:12:56;12.35;;;4.05;;
73382;SDS011;61600;48.126;11.542;2022-12-07T15:15:45;7.15;;;3.40;;
73382;SDS011;61600;48.126;11.542;2022-12-07T15:18:17;11.73;;;4.25;;
73382;SDS011;61600;48.126;11.542;2022-12-07T15:20:45;9.20;;;3.92;;
73382;SDS011;61600;48.126;11.542;2022-12-07T15:23:12;9.07;;;3.72;;
73382;SDS011;61600;48.126;11.542;2022-12-07T15:25:42;9.43;;;4.03;;
73382;SDS011;61600;48.126;11.542;2022-12-07T15:28:11;11.27;;;4.18;;
73382;SDS011;61600;48.126;11.542;2022-12-07T15:30:38;8.60;;;3.85;;
73382;SDS011;61600;48.126;11.542;2022-12-07T15:33:04;11.48;;;4.82;;
73382;SDS011;61600;48.126;11.542;2022-12-07T15:35:31;11.55;;;5.22;;
73382;SDS011;61600;48.126;11.542;2022-12-07T15:37:57;18.00;;;5.50;;
73382;SDS011;61600;48.126;11.542;2022-12-07T15:40:24;11.48;;;4.95;;
73382;SDS011;61600;48.126;11.542;2022-12-07T15:42:52;12.77;;;4.72;;
73382;SDS011;61600;48.126;11.542;2022-12-07T15:45:19;16.20;;;5.15;;
73382;SDS011;61600;48.126;11.542;2022-12-07T15:47:46;16.00;;;4.97;;
73382;SDS011;61600;48.126;11.542;2022-12-07T15:50:13;10.23;;;4.63;;
73382;SDS011;61600;48.126;11.542;2022-12-07T15:52:52;11.95;;;4.90;;
73382;SDS011;61600;48.126;11.542;2022-12-07T15:55:19;10.65;;;5.15;;
73382;SDS011;61600;48.126;11.542;2022-12-07T15:57:45;10.85;;;5.20;;
73382;SDS011;61600;48.126;11.542;2022-12-07T16:00:11;13.48;;;6.07;;
73382;SDS011;61600;48.126;11.542;2022-12-07T16:02:37;12.77;;;5.45;;
73382;SDS011;61600;48.126;11.542;2022-12-07T16:05:04;11.38;;;5.85;;
73382;SDS011;61600;48.126;11.542;2022-12-07T16:07:35;14.95;;;6.30;;
73382;SDS011;61600;48.126;11.542;2022-12-07T16:10:01;13.95;;;6.35;;
73382;SDS011;61600;48.126;11.542;2022-12-07T16:12:31;14.73;;;5.93;;
73382;SDS011;61600;48.126;11.542;2022-12-07T16:14:57;11.38;;;5.80;;
73382;SDS011;61600;48.126;11.542;2022-12-07T16:17:23;13.85;;;5.50;;
73382;SDS011;61600;48.126;11.542;2022-12-07T16:19:49;18.13;;;6.30;;
73382;SDS011;61600;48.126;11.542;2022-12-07T16:22:14;14.35;;;5.97;;
73382;SDS011;61600;48.126;11.542;2022-12-07T16:24:40;13.77;;;5.85;;
73382;SDS011;61600;48.126;11.542;2022-12-07T16:27:06;14.27;;;6.20;;
73382;SDS011;61600;48.126;11.542;2022-12-07T16:29:32;15.35;;;7.20;;
73382;SDS011;61600;48.126;11.542;2022-12-07T16:31:58;11.93;;;5.20;;
73382;SDS011;61600;48.126;11.542;2022-12-07T16:34:23;13.43;;;5.32;;
73382;SDS011;61600;48.126;11.542;2022-12-07T16:36:50;14.40;;;6.28;;
73382;SDS011;61600;48.126;11.542;2022-12-07T16:39:16;15.30;;;6.53;;
73382;SDS011;61600;48.126;11.542;2022-12-07T16:41:43;13.60;;;6.13;;
73382;SDS011;61600;48.126;11.542;2022-12-07T16:44:10;16.02;;;5.60;;
73382;SDS011;61600;48.126;11.542;2022-12-07T16:49:03;13.77;;;6.00;;
73382;SDS011;61600;48.126;11.542;2022-12-07T16:51:30;11.88;;;6.10;;
73382;SDS011;61600;48.126;11.542;2022-12-07T16:53:56;11.25;;;5.18;;
73382;SDS011;61600;48.126;11.542;2022-12-07T16:56:22;14.82;;;5.95;;
73382;SDS011;61600;48.126;11.542;2022-12-07T16:58:49;13.48;;;6.57;;